Time;durP1;ratioP1;P1;durP2;ratioP2;P2;SDS_P1;SDS_P2;PMS_P1;PMS_P2;Temp;Humidity;BMP_temperature;BMP_pressure;BME280_temperature;BME280_humidity;BME280_pressure;Samples;Min_cycle;Max_cycle;Signal;HPM_P1;HPM_P2
2021/03/28 00:02:25;;;;;;;16.97;3.37;;;7.80;99.90;;;;;;5086792;28;20222;-78
2021/03/28 00:04:59;;;;;;;14.00;3.60;;;7.80;99.90;;;;;;5089653;28;20224;-79
2021/03/28 00:07:38;;;;;;;15.53;3.03;;;7.80;99.90;;;;;;5093939;28;20301;-79
2021/03/28 00:10:09;;;;;;;16.30;3.03;;;7.90;99.90;;;;;;5092171;28;20287;-79
2021/03/28 00:12:39;;;;;;;16.33;3.30;;;7.80;99.90;;;;;;5088820;28;20283;-79
2021/03/28 00:15:19;;;;;;;9.30;2.83;;;7.70;99.90;;;;;;5091249;28;20581;-82
2021/03/28 00:17:49;;;;;;;12.83;2.30;;;7.80;99.90;;;;;;5093131;28;20718;-80
2021/03/28 00:20:36;;;;;;;16.43;3.30;;;7.70;99.90;;;;;;5091739;28;20212;-81
2021/03/28 00:23:08;;;;;;;13.63;3.00;;;7.70;99.90;;;;;;5117563;28;20197;-78
2021/03/28 00:25:43;;;;;;;13.60;2.63;;;7.60;99.90;;;;;;5117509;28;20203;-80
2021/03/28 00:28:32;;;;;;;10.70;2.23;;;7.50;99.90;;;;;;5116936;28;20207;-80
2021/03/28 00:31:25;;;;;;;8.37;2.43;;;7.50;99.90;;;;;;5115950;28;20193;-81
2021/03/28 00:34:12;;;;;;;12.30;2.53;;;7.40;99.90;;;;;;5090000;28;20230;-79
2021/03/28 00:36:44;;;;;;;17.00;2.93;;;7.40;99.90;;;;;;5116611;28;20209;-79
2021/03/28 00:39:14;;;;;;;17.93;2.53;;;7.30;99.90;;;;;;5114430;28;20226;-79
2021/03/28 00:41:55;;;;;;;11.57;2.40;;;7.30;99.90;;;;;;5094062;28;20291;-80
2021/03/28 00:44:23;;;;;;;16.87;3.10;;;7.20;99.90;;;;;;5079477;28;20651;-80
2021/03/28 00:46:56;;;;;;;14.63;2.10;;;7.10;99.90;;;;;;5090571;28;20230;-81
2021/03/28 00:49:26;;;;;;;18.60;2.27;;;7.10;99.90;;;;;;5082242;28;20295;-78
2021/03/28 00:51:56;;;;;;;17.13;2.57;;;7.10;99.90;;;;;;5090177;28;20281;-79
2021/03/28 00:54:36;;;;;;;14.53;2.67;;;7.00;99.90;;;;;;5084364;28;20204;-81
2021/03/28 00:57:05;;;;;;;12.67;2.30;;;7.00;99.90;;;;;;5091687;28;20287;-80
2021/03/28 00:59:45;;;;;;;7.13;1.83;;;7.00;99.90;;;;;;5092820;28;20228;-79
2021/03/28 01:02:20;;;;;;;14.50;2.37;;;7.00;99.90;;;;;;5092983;28;20235;-78
2021/03/28 01:05:06;;;;;;;11.30;2.00;;;7.00;99.90;;;;;;5088355;28;20202;-79
2021/03/28 01:07:43;;;;;;;8.17;1.97;;;7.10;99.90;;;;;;5088315;28;20201;-78
2021/03/28 01:10:51;;;;;;;9.30;2.17;;;7.10;99.90;;;;;;5091597;28;20336;-81
2021/03/28 01:14:02;;;;;;;12.67;2.23;;;7.00;99.90;;;;;;5088506;28;20329;-80
2021/03/28 01:17:10;;;;;;;13.77;2.47;;;7.00;99.90;;;;;;5088339;28;20309;-84
2021/03/28 01:20:06;;;;;;;10.87;2.27;;;7.00;99.90;;;;;;5084602;28;20300;-81
2021/03/28 01:22:42;;;;;;;12.90;2.40;;;7.00;99.90;;;;;;5087821;28;20202;-79
2021/03/28 01:25:33;;;;;;;10.70;2.63;;;6.90;99.90;;;;;;5088997;28;20315;-81
2021/03/28 01:28:12;;;;;;;9.67;2.17;;;6.90;99.90;;;;;;5092465;28;20219;-80
2021/03/28 01:30:42;;;;;;;11.97;3.07;;;6.90;99.90;;;;;;5090480;28;20664;-82
2021/03/28 01:33:14;;;;;;;13.03;3.07;;;6.90;99.90;;;;;;5089224;28;20223;-79
2021/03/28 01:35:53;;;;;;;10.93;3.10;;;6.90;99.90;;;;;;5088139;28;20264;-79
2021/03/28 01:38:24;;;;;;;9.87;3.20;;;7.00;99.90;;;;;;5088958;28;20219;-78
2021/03/28 01:40:58;;;;;;;11.47;2.33;;;7.00;99.90;;;;;;5088853;28;20655;-79
2021/03/28 01:43:34;;;;;;;12.77;2.90;;;7.00;99.90;;;;;;5083254;28;20287;-81
2021/03/28 01:46:06;;;;;;;6.20;2.60;;;7.10;99.90;;;;;;5092522;28;20309;-81
2021/03/28 01:48:52;;;;;;;13.30;3.30;;;7.20;99.90;;;;;;5084158;28;20206;-79
2021/03/28 01:52:02;;;;;;;9.57;3.10;;;7.20;99.90;;;;;;5091149;28;20663;-79
2021/03/28 01:54:40;;;;;;;13.27;2.70;;;7.20;99.90;;;;;;5027192;28;20211;-80
2021/03/28 01:57:16;;;;;;;11.33;2.73;;;7.20;99.90;;;;;;5029752;28;20209;-79
2021/03/28 01:59:58;;;;;;;12.37;3.00;;;7.40;99.90;;;;;;5059116;28;20232;-79
2021/03/28 02:02:37;;;;;;;8.30;2.40;;;7.40;99.90;;;;;;5085951;28;20683;-83
2021/03/28 02:05:17;;;;;;;10.03;2.17;;;7.50;99.90;;;;;;5092834;28;20289;-81
2021/03/28 02:07:59;;;;;;;15.40;2.80;;;7.60;99.90;;;;;;5092510;28;20632;-81
2021/03/28 02:10:43;;;;;;;8.93;2.20;;;7.60;99.90;;;;;;5090039;28;20212;-80
2021/03/28 02:13:16;;;;;;;10.20;2.40;;;7.70;99.90;;;;;;5089465;28;20217;-80
2021/03/28 02:15:49;;;;;;;7.17;2.30;;;7.80;99.90;;;;;;5087381;28;20253;-80
2021/03/28 02:18:29;;;;;;;10.93;2.27;;;7.80;99.90;;;;;;5088390;28;20232;-79
2021/03/28 02:21:09;;;;;;;14.53;2.33;;;7.90;99.90;;;;;;5093169;28;20216;-81
2021/03/28 02:23:46;;;;;;;10.97;2.00;;;8.00;99.90;;;;;;5090581;28;20219;-79
2021/03/28 02:26:28;;;;;;;9.33;2.50;;;8.00;99.90;;;;;;5089419;28;20678;-80
2021/03/28 02:29:10;;;;;;;9.17;2.43;;;8.00;99.90;;;;;;5083619;28;20712;-80
2021/03/28 02:31:54;;;;;;;10.07;2.40;;;8.10;99.90;;;;;;5096450;28;20698;-78
2021/03/28 02:34:28;;;;;;;9.50;2.03;;;8.10;99.90;;;;;;5091947;28;20245;-80
2021/03/28 02:37:05;;;;;;;17.80;2.53;;;8.10;99.90;;;;;;5096434;28;20292;-80
2021/03/28 02:39:42;;;;;;;8.07;2.27;;;8.20;99.90;;;;;;5092742;28;20218;-80
2021/03/28 02:42:30;;;;;;;8.43;2.23;;;8.20;99.90;;;;;;5096666;28;20215;-79
2021/03/28 02:45:08;;;;;;;11.53;2.10;;;8.10;99.90;;;;;;5096385;28;20677;-79
2021/03/28 02:48:01;;;;;;;6.63;2.07;;;8.00;99.90;;;;;;5078671;28;20201;-79
2021/03/28 02:50:51;;;;;;;8.53;1.80;;;8.20;99.90;;;;;;5093533;28;20565;-80
2021/03/28 02:53:31;;;;;;;7.63;1.60;;;8.30;99.90;;;;;;5089257;28;20206;-80
2021/03/28 02:56:21;;;;;;;10.70;1.93;;;8.40;99.90;;;;;;5095898;28;20301;-80
2021/03/28 02:59:10;;;;;;;12.53;2.03;;;8.30;99.90;;;;;;5095348;28;20255;-80
2021/03/28 03:01:46;;;;;;;8.57;2.30;;;8.30;99.90;;;;;;5095684;28;20197;-81
2021/03/28 03:04:37;;;;;;;9.57;2.47;;;8.30;99.90;;;;;;5096182;28;20243;-80
2021/03/28 03:07:27;;;;;;;10.90;2.27;;;8.30;99.90;;;;;;5058932;28;20192;-83
2021/03/28 03:10:13;;;;;;;6.97;1.97;;;8.20;99.90;;;;;;5092537;28;20567;-82
2021/03/28 03:12:49;;;;;;;11.13;2.43;;;8.20;99.90;;;;;;5095720;28;20330;-78
2021/03/28 03:15:23;;;;;;;7.47;2.20;;;8.40;99.90;;;;;;5095556;28;20712;-79
2021/03/28 03:18:25;;;;;;;10.53;2.50;;;8.60;99.90;;;;;;5095500;28;20249;-81
2021/03/28 03:21:24;;;;;;;10.10;2.10;;;8.70;99.90;;;;;;4979267;28;20253;-79
2021/03/28 03:24:42;;;;;;;10.03;2.47;;;8.70;99.90;;;;;;5080560;28;20235;-80
2021/03/28 03:27:47;;;;;;;11.23;2.50;;;8.70;99.90;;;;;;5033235;28;20558;-83
2021/03/28 03:30:42;;;;;;;8.23;2.50;;;8.80;99.90;;;;;;5032687;28;20694;-80
2021/03/28 03:33:28;;;;;;;9.63;3.10;;;8.80;99.90;;;;;;5087281;28;20292;-80
2021/03/28 03:36:17;;;;;;;9.33;3.10;;;8.90;99.90;;;;;;5087781;28;20647;-82
2021/03/28 03:39:00;;;;;;;8.43;3.30;;;9.00;99.90;;;;;;5095019;28;20304;-82
2021/03/28 03:41:47;;;;;;;16.20;4.70;;;9.00;99.90;;;;;;5088954;28;20287;-80
2021/03/28 03:44:19;;;;;;;9.83;3.10;;;9.00;99.90;;;;;;5095350;28;20271;-81
2021/03/28 03:47:15;;;;;;;12.37;3.17;;;9.00;99.90;;;;;;5089500;28;20202;-79
2021/03/28 03:50:08;;;;;;;9.43;3.00;;;9.10;99.90;;;;;;5093417;28;20204;-80
2021/03/28 03:53:05;;;;;;;15.20;3.17;;;9.20;99.90;;;;;;5094901;28;20201;-79
2021/03/28 03:55:40;;;;;;;11.33;2.80;;;9.20;99.90;;;;;;5092350;28;20246;-81
2021/03/28 03:58:21;;;;;;;8.33;2.70;;;9.20;99.90;;;;;;5086642;28;20219;-82
2021/03/28 04:00:57;;;;;;;13.33;3.63;;;9.20;99.90;;;;;;5090114;28;20291;-79
2021/03/28 04:03:30;;;;;;;9.40;2.77;;;9.30;99.90;;;;;;5081986;28;20207;-80
2021/03/28 04:06:27;;;;;;;9.07;3.00;;;9.30;99.90;;;;;;5090582;28;20283;-81
2021/03/28 04:09:16;;;;;;;11.43;3.23;;;9.40;99.90;;;;;;5094443;28;20744;-83
2021/03/28 04:11:56;;;;;;;10.30;2.90;;;9.30;99.90;;;;;;5091428;28;20573;-80
2021/03/28 04:14:34;;;;;;;10.70;3.33;;;9.30;99.90;;;;;;5086767;28;20216;-79
2021/03/28 04:17:19;;;;;;;12.43;3.13;;;9.30;99.90;;;;;;5081469;28;20239;-81
2021/03/28 04:20:00;;;;;;;13.30;3.03;;;9.30;99.90;;;;;;5093143;28;20232;-80
2021/03/28 04:23:02;;;;;;;16.10;3.90;;;9.30;99.90;;;;;;5094523;28;20240;-80
2021/03/28 04:25:42;;;;;;;10.40;3.23;;;9.40;99.90;;;;;;5081290;28;20265;-80
2021/03/28 04:28:47;;;;;;;7.83;2.97;;;9.30;99.90;;;;;;5094108;28;20204;-80
2021/03/28 04:31:58;;;;;;;14.43;3.27;;;9.40;99.90;;;;;;5065669;28;20234;-79
2021/03/28 04:34:27;;;;;;;15.10;3.60;;;9.40;99.90;;;;;;5094664;28;20216;-77
2021/03/28 04:37:14;;;;;;;20.20;3.30;;;9.40;99.90;;;;;;5090068;28;20200;-79
2021/03/28 04:40:01;;;;;;;12.87;3.17;;;9.40;99.90;;;;;;5082105;28;20233;-81
2021/03/28 04:42:59;;;;;;;8.87;2.77;;;9.40;99.90;;;;;;5080356;28;20204;-80
2021/03/28 04:46:00;;;;;;;13.33;3.47;;;9.40;99.90;;;;;;5050019;28;20206;-81
2021/03/28 04:48:59;;;;;;;11.20;3.63;;;9.40;99.90;;;;;;5073583;28;20683;-80
2021/03/28 04:52:03;;;;;;;9.03;2.90;;;9.30;99.90;;;;;;5060027;28;20260;-80
2021/03/28 04:54:59;;;;;;;17.80;3.30;;;9.20;99.90;;;;;;4999855;28;20220;-79
2021/03/28 04:57:51;;;;;;;10.70;3.40;;;9.20;99.90;;;;;;5081326;28;20288;-80
2021/03/28 05:00:50;;;;;;;10.97;3.20;;;9.20;99.90;;;;;;5065341;28;20260;-78
2021/03/28 05:03:39;;;;;;;10.67;3.50;;;9.10;99.90;;;;;;5072793;28;20208;-80
2021/03/28 05:06:28;;;;;;;11.93;3.23;;;9.20;99.90;;;;;;5089653;28;20211;-81
2021/03/28 05:08:57;;;;;;;15.33;3.40;;;9.20;99.90;;;;;;5093517;28;20233;-79
2021/03/28 05:12:03;;;;;;;12.03;3.17;;;9.20;99.90;;;;;;5093487;28;20203;-79
2021/03/28 05:15:03;;;;;;;10.23;3.10;;;9.20;99.90;;;;;;5075919;28;20201;-80
2021/03/28 05:18:14;;;;;;;8.50;3.33;;;9.20;99.90;;;;;;5083468;28;20738;-79
2021/03/28 05:21:22;;;;;;;10.38;3.60;;;9.20;99.90;;;;;;5069282;28;20673;-79
2021/03/28 05:24:27;;;;;;;10.27;3.00;;;9.10;99.90;;;;;;5080739;28;20283;-78
2021/03/28 05:27:27;;;;;;;10.10;2.80;;;9.20;99.90;;;;;;5090065;28;20629;-80
2021/03/28 05:30:25;;;;;;;8.83;2.87;;;9.00;99.90;;;;;;5087986;28;20291;-78
2021/03/28 05:33:18;;;;;;;11.30;2.90;;;9.00;99.90;;;;;;5091923;28;20239;-81
2021/03/28 05:36:17;;;;;;;11.10;3.17;;;9.00;99.90;;;;;;5047003;28;20196;-78
2021/03/28 05:39:23;;;;;;;11.17;2.93;;;9.00;99.90;;;;;;5093119;28;20254;-82
2021/03/28 05:42:19;;;;;;;16.50;3.50;;;8.90;99.90;;;;;;5093001;28;20209;-80
2021/03/28 05:45:16;;;;;;;15.00;3.03;;;8.80;99.90;;;;;;5093294;28;20226;-80
2021/03/28 05:47:54;;;;;;;8.73;2.80;;;8.80;99.90;;;;;;5085340;28;20224;-81
2021/03/28 05:50:32;;;;;;;12.93;2.97;;;8.70;99.90;;;;;;5091221;28;20219;-80
2021/03/28 05:53:47;;;;;;;11.40;2.97;;;8.60;99.90;;;;;;5091841;28;20696;-81
2021/03/28 05:56:46;;;;;;;13.07;3.10;;;8.50;99.90;;;;;;5080955;28;20615;-81
2021/03/28 05:59:43;;;;;;;12.50;3.40;;;8.50;99.90;;;;;;5096871;28;20338;-79
2021/03/28 06:02:28;;;;;;;9.67;3.40;;;8.60;99.90;;;;;;5097044;28;20291;-80
2021/03/28 06:05:35;;;;;;;16.50;3.63;;;8.50;99.90;;;;;;5092943;28;20208;-80
2021/03/28 06:08:55;;;;;;;10.03;3.00;;;8.60;99.90;;;;;;5079022;28;20271;-80
2021/03/28 06:12:03;;;;;;;11.90;3.67;;;8.60;99.90;;;;;;5096709;28;20200;-79
2021/03/28 06:14:46;;;;;;;10.50;3.10;;;8.70;99.90;;;;;;5096500;28;20208;-79
2021/03/28 06:17:32;;;;;;;10.43;3.60;;;8.80;99.90;;;;;;5092156;28;20333;-79
2021/03/28 06:20:30;;;;;;;15.33;3.80;;;9.00;99.90;;;;;;5096168;28;20285;-81
2021/03/28 06:23:30;;;;;;;13.97;3.83;;;9.10;99.90;;;;;;5096554;28;20734;-79
2021/03/28 06:26:26;;;;;;;8.63;3.00;;;9.40;99.90;;;;;;5096292;28;20292;-79
2021/03/28 06:29:27;;;;;;;14.53;3.27;;;9.60;99.90;;;;;;5070268;28;20278;-79
2021/03/28 06:32:40;;;;;;;11.73;3.43;;;9.80;99.90;;;;;;5088704;28;20211;-80
2021/03/28 06:35:33;;;;;;;10.70;2.63;;;10.00;99.90;;;;;;5091656;28;20231;-79
2021/03/28 06:38:24;;;;;;;20.57;3.40;;;10.20;99.90;;;;;;5095059;28;20637;-80
2021/03/28 06:41:02;;;;;;;15.13;3.17;;;10.30;99.90;;;;;;5074998;28;20280;-80
2021/03/28 06:44:12;;;;;;;11.67;3.30;;;10.40;99.90;;;;;;5095320;28;20296;-80
2021/03/28 06:47:16;;;;;;;12.70;3.00;;;10.40;99.90;;;;;;5088784;28;20206;-79
2021/03/28 06:50:13;;;;;;;15.30;3.60;;;10.50;99.90;;;;;;5083524;28;20203;-79
2021/03/28 06:52:57;;;;;;;9.17;3.27;;;10.50;99.90;;;;;;5083026;28;20285;-81
2021/03/28 06:55:39;;;;;;;15.40;3.73;;;10.40;99.90;;;;;;5089516;28;20245;-79
2021/03/28 06:58:41;;;;;;;15.33;3.23;;;10.40;99.90;;;;;;5095329;28;20231;-80
2021/03/28 07:01:40;;;;;;;12.43;2.87;;;10.40;99.90;;;;;;5085511;28;20208;-79
2021/03/28 07:04:54;;;;;;;11.50;2.90;;;10.50;99.90;;;;;;5088908;28;20234;-80
2021/03/28 07:07:50;;;;;;;11.93;3.17;;;10.70;99.90;;;;;;5085273;28;20214;-80
2021/03/28 07:10:43;;;;;;;11.33;3.30;;;10.80;99.90;;;;;;5082392;28;20295;-79
2021/03/28 07:13:35;;;;;;;15.07;3.60;;;11.00;99.90;;;;;;5078498;28;20206;-78
2021/03/28 07:16:30;;;;;;;12.00;3.10;;;11.10;99.90;;;;;;5110818;28;20183;-79
2021/03/28 07:19:35;;;;;;;16.17;3.13;;;11.10;99.90;;;;;;5112773;28;20220;-78
2021/03/28 07:22:24;;;;;;;13.47;3.10;;;11.10;99.90;;;;;;5080550;28;20230;-79
2021/03/28 07:25:23;;;;;;;10.43;2.93;;;11.10;99.90;;;;;;5115651;28;20181;-78
2021/03/28 07:28:24;;;;;;;9.87;3.03;;;11.10;99.90;;;;;;5114572;28;20197;-80
2021/03/28 07:31:12;;;;;;;10.97;3.00;;;11.00;99.90;;;;;;5072684;28;20225;-81
2021/03/28 07:34:00;;;;;;;11.57;2.83;;;11.20;99.90;;;;;;5088594;28;20730;-79
2021/03/28 07:36:50;;;;;;;13.10;3.03;;;11.30;99.90;;;;;;5082295;28;20614;-80
2021/03/28 07:39:52;;;;;;;11.97;2.67;;;11.40;99.90;;;;;;5051557;28;20329;-80
2021/03/28 07:42:49;;;;;;;10.73;3.10;;;11.50;99.90;;;;;;5093648;28;20291;-80
2021/03/28 07:45:41;;;;;;;10.57;3.17;;;11.50;99.90;;;;;;5093658;28;20284;-79
2021/03/28 07:48:44;;;;;;;13.03;2.80;;;11.40;99.90;;;;;;5086776;28;20289;-80
2021/03/28 07:51:51;;;;;;;8.47;2.80;;;11.30;99.90;;;;;;5075461;28;20667;-81
2021/03/28 07:54:45;;;;;;;11.60;2.83;;;11.00;99.90;;;;;;5088879;28;20203;-81
2021/03/28 07:57:39;;;;;;;10.07;2.80;;;10.80;99.90;;;;;;5094819;28;20221;-79
2021/03/28 08:00:24;;;;;;;12.50;2.63;;;10.60;99.90;;;;;;5079881;28;20363;-79
2021/03/28 08:03:27;;;;;;;9.47;2.90;;;10.70;99.90;;;;;;5078931;28;20223;-80
2021/03/28 08:06:20;;;;;;;15.27;3.03;;;10.70;99.90;;;;;;5087810;28;20720;-79
2021/03/28 08:09:12;;;;;;;7.90;2.30;;;10.80;99.90;;;;;;5070790;28;20460;-77
2021/03/28 08:12:06;;;;;;;7.57;1.93;;;10.90;99.90;;;;;;5089316;28;20295;-80
2021/03/28 08:15:12;;;;;;;10.23;2.00;;;11.00;99.90;;;;;;5093504;28;20229;-81
2021/03/28 08:17:54;;;;;;;7.00;1.90;;;11.00;99.90;;;;;;5088904;28;20208;-79
2021/03/28 08:20:53;;;;;;;13.83;2.10;;;11.00;99.90;;;;;;5089155;28;20364;-79
2021/03/28 08:23:59;;;;;;;10.27;1.87;;;11.10;99.90;;;;;;5087674;28;20266;-79
2021/03/28 08:26:52;;;;;;;7.33;2.20;;;11.10;99.90;;;;;;5083811;28;20297;-79
2021/03/28 08:29:37;;;;;;;8.50;2.20;;;11.00;99.90;;;;;;5069972;28;20210;-79
2021/03/28 08:32:17;;;;;;;13.07;1.70;;;11.20;99.90;;;;;;5083138;28;20285;-82
2021/03/28 08:35:05;;;;;;;8.90;2.03;;;11.30;99.90;;;;;;5089703;28;20569;-79
2021/03/28 08:38:11;;;;;;;7.67;1.73;;;11.50;99.90;;;;;;5085233;28;20207;-79
2021/03/28 08:41:06;;;;;;;12.17;2.37;;;11.60;99.90;;;;;;5092619;28;20309;-82
2021/03/28 08:44:05;;;;;;;9.77;2.40;;;11.80;99.90;;;;;;5060971;28;20205;-85
2021/03/28 08:47:10;;;;;;;6.07;1.60;;;12.10;99.90;;;;;;5088360;28;20254;-81
2021/03/28 08:49:44;;;;;;;11.43;2.50;;;12.30;99.90;;;;;;5086600;28;20209;-80
2021/03/28 08:52:44;;;;;;;13.83;2.07;;;12.20;99.90;;;;;;5076963;28;20241;-82
2021/03/28 08:55:28;;;;;;;8.43;1.97;;;12.10;99.90;;;;;;5089553;28;20204;-81
2021/03/28 08:58:02;;;;;;;9.10;2.30;;;12.10;99.90;;;;;;5078983;28;20258;-78
2021/03/28 09:00:43;;;;;;;9.67;1.93;;;12.10;99.90;;;;;;5078472;28;20839;-79
2021/03/28 09:03:57;;;;;;;9.50;1.80;;;12.00;99.90;;;;;;5072359;28;20202;-78
2021/03/28 09:06:44;;;;;;;10.97;1.93;;;11.90;99.90;;;;;;5027439;28;20207;-78
2021/03/28 09:09:28;;;;;;;5.03;1.80;;;11.90;99.90;;;;;;5091044;28;20293;-80
2021/03/28 09:12:06;;;;;;;13.73;2.23;;;11.90;99.90;;;;;;5078305;28;20219;-81
2021/03/28 09:15:07;;;;;;;6.77;1.63;;;11.90;99.90;;;;;;5079908;28;20702;-77
2021/03/28 09:17:43;;;;;;;9.87;2.30;;;11.90;99.90;;;;;;5074211;28;20214;-78
2021/03/28 09:20:24;;;;;;;9.67;1.77;;;12.00;99.90;;;;;;5083019;28;20560;-80
2021/03/28 09:22:58;;;;;;;9.27;1.80;;;12.10;99.90;;;;;;5087776;28;20291;-81
2021/03/28 09:25:31;;;;;;;8.57;1.40;;;12.20;99.90;;;;;;5073696;28;20271;-79
2021/03/28 09:28:05;;;;;;;6.17;1.90;;;12.20;99.90;;;;;;5077151;28;20226;-82
2021/03/28 09:30:38;;;;;;;6.57;1.40;;;12.40;99.90;;;;;;5082627;28;20535;-83
2021/03/28 09:33:30;;;;;;;6.23;1.77;;;12.60;99.90;;;;;;5090389;28;20200;-82
2021/03/28 09:36:30;;;;;;;6.50;1.47;;;12.80;99.90;;;;;;5089323;28;20235;-79
2021/03/28 09:39:22;;;;;;;7.00;1.90;;;13.40;99.90;;;;;;5086575;28;20246;-80
2021/03/28 09:42:12;;;;;;;8.70;1.73;;;14.30;99.90;;;;;;5082128;28;20285;-77
2021/03/28 09:45:11;;;;;;;12.10;2.00;;;15.20;99.90;;;;;;5088388;28;20289;-78
2021/03/28 09:47:46;;;;;;;6.90;1.57;;;15.60;99.90;;;;;;5088567;28;20194;-79
2021/03/28 09:50:23;;;;;;;6.07;1.30;;;15.30;99.90;;;;;;5079246;28;20722;-80
2021/03/28 09:53:06;;;;;;;5.20;1.60;;;15.40;99.90;;;;;;5085873;28;20249;-82
2021/03/28 09:55:56;;;;;;;8.53;1.47;;;15.40;99.90;;;;;;5080022;28;20678;-80
2021/03/28 09:58:41;;;;;;;8.33;1.80;;;15.50;99.90;;;;;;5087131;28;20222;-77
2021/03/28 10:01:48;;;;;;;7.37;1.60;;;15.70;99.90;;;;;;5082028;28;20234;-80
2021/03/28 10:04:25;;;;;;;7.60;1.63;;;15.70;99.90;;;;;;5049835;28;20325;-78
2021/03/28 10:06:57;;;;;;;10.57;1.97;;;15.60;99.90;;;;;;5081132;28;20285;-78
2021/03/28 10:09:38;;;;;;;7.43;1.60;;;15.60;99.90;;;;;;5083965;28;20560;-79
2021/03/28 10:12:15;;;;;;;11.53;2.30;;;15.40;99.90;;;;;;5086788;28;20734;-78
2021/03/28 10:14:57;;;;;;;7.57;1.53;;;15.00;99.90;;;;;;5082193;28;20281;-77
2021/03/28 10:17:46;;;;;;;8.13;1.40;;;14.60;99.90;;;;;;5082455;28;20195;-78
2021/03/28 10:20:36;;;;;;;7.63;1.60;;;15.00;99.90;;;;;;5087696;28;20230;-81
2021/03/28 10:23:20;;;;;;;7.13;2.17;;;15.70;99.90;;;;;;5083515;28;20294;-78
2021/03/28 10:25:57;;;;;;;5.77;1.67;;;16.60;99.90;;;;;;5082364;28;20218;-77
2021/03/28 10:28:53;;;;;;;8.50;1.93;;;16.80;99.90;;;;;;5085927;28;20667;-77
2021/03/28 10:31:33;;;;;;;13.23;2.10;;;17.40;99.90;;;;;;5089778;28;20226;-80
2021/03/28 10:34:31;;;;;;;5.13;2.20;;;17.70;99.90;;;;;;5082979;28;20191;-77
2021/03/28 10:37:15;;;;;;;7.03;1.40;;;17.60;99.90;;;;;;5078837;28;20309;-78
2021/03/28 10:39:56;;;;;;;10.87;1.90;;;17.70;99.90;;;;;;5083310;28;20295;-78
2021/03/28 10:42:44;;;;;;;7.93;1.73;;;18.00;99.90;;;;;;5071551;28;20686;-77
2021/03/28 10:45:23;;;;;;;6.70;1.93;;;18.00;99.90;;;;;;5091320;28;20671;-78
2021/03/28 10:48:19;;;;;;;7.43;1.53;;;17.10;99.90;;;;;;5081354;28;20214;-77
2021/03/28 10:51:31;;;;;;;7.03;1.83;;;17.30;99.90;;;;;;5093836;28;20238;-81
2021/03/28 10:54:49;;;;;;;10.73;1.70;;;17.80;99.90;;;;;;5086795;28;20253;-78
2021/03/28 10:58:04;;;;;;;5.80;1.93;;;18.80;99.90;;;;;;5087411;28;20290;-78
2021/03/28 11:01:07;;;;;;;11.77;2.30;;;18.20;99.90;;;;;;5088462;28;20223;-77
2021/03/28 11:04:08;;;;;;;6.53;1.80;;;17.90;99.90;;;;;;5052915;28;20289;-78
2021/03/28 11:06:57;;;;;;;9.00;1.80;;;17.30;99.90;;;;;;5086803;28;20313;-80
2021/03/28 11:09:48;;;;;;;8.63;1.90;;;17.50;99.90;;;;;;5084690;28;20236;-78
2021/03/28 11:12:44;;;;;;;8.10;1.73;;;17.30;99.90;;;;;;5088557;28;20641;-78
2021/03/28 11:15:35;;;;;;;7.83;1.77;;;17.70;99.90;;;;;;5079888;28;20203;-78
2021/03/28 11:18:33;;;;;;;8.00;1.70;;;17.50;99.90;;;;;;5051015;28;20202;-80
2021/03/28 11:21:04;;;;;;;9.43;1.47;;;17.70;99.90;;;;;;5076798;28;20592;-81
2021/03/28 11:24:03;;;;;;;5.13;1.67;;;17.70;99.90;;;;;;5090947;28;20274;-78
2021/03/28 11:27:04;;;;;;;8.87;2.10;;;17.30;99.90;;;;;;5083384;28;20669;-77
2021/03/28 11:30:03;;;;;;;8.40;1.77;;;16.90;99.90;;;;;;5089940;28;20222;-78
2021/03/28 11:32:51;;;;;;;7.53;1.80;;;16.90;99.90;;;;;;5089360;28;20317;-78
2021/03/28 11:35:24;;;;;;;8.33;2.00;;;16.90;99.90;;;;;;5093069;28;20199;-78
2021/03/28 11:37:53;;;;;;;12.27;2.40;;;16.80;99.90;;;;;;5087594;28;20211;-77
2021/03/28 11:40:29;;;;;;;8.53;2.13;;;16.50;99.90;;;;;;5071669;28;20223;-78
2021/03/28 11:43:21;;;;;;;10.70;1.83;;;16.50;99.90;;;;;;5083606;28;20203;-79
2021/03/28 11:45:49;;;;;;;12.50;2.00;;;16.60;99.90;;;;;;5089714;28;20207;-77
2021/03/28 11:48:26;;;;;;;8.27;2.30;;;16.80;99.90;;;;;;5093981;28;20211;-78
2021/03/28 11:50:56;;;;;;;8.13;2.00;;;16.60;99.90;;;;;;5094098;28;20244;-79
2021/03/28 11:53:35;;;;;;;7.30;1.53;;;16.70;99.90;;;;;;5093410;28;20637;-79
2021/03/28 11:56:04;;;;;;;7.53;2.03;;;16.40;99.90;;;;;;5092222;28;20198;-78
2021/03/28 11:59:00;;;;;;;8.67;2.13;;;16.20;99.90;;;;;;5093052;28;20195;-78
2021/03/28 12:02:03;;;;;;;8.33;1.93;;;16.10;99.90;;;;;;5093814;28;20207;-78
2021/03/28 12:04:33;;;;;;;9.33;2.00;;;16.10;99.90;;;;;;5092975;28;20664;-78
2021/03/28 12:07:15;;;;;;;8.00;2.00;;;16.20;99.90;;;;;;5092437;28;20207;-76
2021/03/28 12:09:45;;;;;;;9.70;2.10;;;16.20;99.90;;;;;;5082061;28;20200;-78
2021/03/28 12:12:26;;;;;;;9.10;2.13;;;16.40;99.90;;;;;;5091081;28;20644;-80
2021/03/28 12:14:53;;;;;;;11.93;2.27;;;16.60;99.90;;;;;;5090204;28;20269;-79
2021/03/28 12:17:29;;;;;;;9.17;1.93;;;16.70;99.90;;;;;;5091735;28;20197;-77
2021/03/28 12:20:19;;;;;;;6.63;2.23;;;16.70;99.90;;;;;;5086278;28;20263;-79
2021/03/28 12:23:00;;;;;;;11.70;2.20;;;16.70;99.90;;;;;;5085532;28;20198;-77
2021/03/28 12:25:32;;;;;;;8.90;2.03;;;16.70;99.90;;;;;;5093016;28;20225;-79
2021/03/28 12:28:26;;;;;;;11.13;2.27;;;16.70;99.90;;;;;;5093146;28;20237;-78
2021/03/28 12:30:54;;;;;;;9.00;2.07;;;16.80;99.90;;;;;;5083537;28;20315;-76
2021/03/28 12:33:22;;;;;;;8.63;2.10;;;16.60;99.90;;;;;;5090051;28;20717;-78
2021/03/28 12:36:01;;;;;;;9.37;2.03;;;16.60;99.90;;;;;;5091349;28;20197;-78
2021/03/28 12:38:49;;;;;;;8.93;2.17;;;16.60;99.90;;;;;;5091768;28;20233;-78
2021/03/28 12:41:21;;;;;;;8.57;2.10;;;16.70;99.90;;;;;;5092412;28;20645;-77
2021/03/28 12:43:53;;;;;;;12.07;2.23;;;17.10;99.90;;;;;;5087184;28;20325;-77
2021/03/28 12:46:50;;;;;;;12.10;2.13;;;17.20;99.90;;;;;;5092795;28;20190;-78
2021/03/28 12:49:21;;;;;;;8.67;2.00;;;17.00;99.90;;;;;;5087001;28;20226;-78
2021/03/28 12:51:59;;;;;;;6.90;1.90;;;17.00;99.90;;;;;;5092104;28;20287;-79
2021/03/28 12:54:29;;;;;;;14.73;2.53;;;17.00;99.90;;;;;;5090093;28;20191;-79
2021/03/28 12:57:00;;;;;;;9.00;1.90;;;17.00;99.90;;;;;;5092414;28;20199;-77
2021/03/28 12:59:38;;;;;;;9.10;2.40;;;17.10;99.90;;;;;;5080832;28;20215;-76
2021/03/28 13:02:18;;;;;;;8.37;2.33;;;17.30;99.90;;;;;;5089527;28;20293;-78
2021/03/28 13:04:53;;;;;;;7.77;2.10;;;17.20;99.90;;;;;;5060546;28;20291;-77
2021/03/28 13:07:44;;;;;;;8.37;2.10;;;16.90;99.90;;;;;;5081292;28;20301;-78
2021/03/28 13:10:20;;;;;;;9.07;2.13;;;16.70;99.90;;;;;;5085920;28;20286;-77
2021/03/28 13:12:55;;;;;;;8.70;2.50;;;16.90;99.90;;;;;;5081537;28;20664;-78
2021/03/28 13:15:25;;;;;;;6.30;2.33;;;17.20;99.90;;;;;;5087569;28;20190;-78
2021/03/28 13:18:21;;;;;;;10.33;2.63;;;17.20;99.90;;;;;;5087481;28;20712;-78
2021/03/28 13:20:51;;;;;;;5.10;1.97;;;17.10;99.90;;;;;;5077098;28;20267;-79
2021/03/28 13:23:32;;;;;;;6.87;2.10;;;17.00;99.90;;;;;;5079846;28;20313;-80
2021/03/28 13:26:21;;;;;;;9.53;2.27;;;16.70;99.90;;;;;;5080510;28;20279;-79
2021/03/28 13:29:02;;;;;;;7.50;2.00;;;16.50;99.90;;;;;;5082899;28;20198;-78
2021/03/28 13:31:39;;;;;;;7.83;2.07;;;16.30;99.90;;;;;;5081173;28;20229;-80
2021/03/28 13:34:26;;;;;;;7.83;2.13;;;16.30;99.90;;;;;;5091017;28;20211;-78
2021/03/28 13:37:06;;;;;;;7.33;2.20;;;16.20;99.90;;;;;;5082848;28;20191;-77
2021/03/28 13:39:36;;;;;;;8.87;1.70;;;16.20;99.90;;;;;;5094487;28;20712;-80
2021/03/28 13:42:16;;;;;;;9.53;2.03;;;16.30;99.90;;;;;;5102008;28;20200;-80
2021/03/28 13:45:23;;;;;;;8.43;2.17;;;16.40;99.90;;;;;;5107718;28;20273;-80
2021/03/28 13:47:51;;;;;;;7.80;1.93;;;16.60;99.90;;;;;;5103183;28;20187;-78
2021/03/28 13:50:49;;;;;;;6.10;2.00;;;16.70;99.90;;;;;;5107460;28;20203;-78
2021/03/28 13:53:36;;;;;;;13.33;2.10;;;16.60;99.90;;;;;;5080237;28;20194;-78
2021/03/28 13:56:33;;;;;;;9.00;2.17;;;16.50;99.90;;;;;;5093113;28;20194;-78
2021/03/28 13:59:13;;;;;;;8.97;1.93;;;16.50;99.90;;;;;;5046429;28;20207;-80
2021/03/28 14:02:04;;;;;;;10.70;1.83;;;16.40;99.90;;;;;;5085106;28;20270;-76
2021/03/28 14:04:40;;;;;;;8.27;1.93;;;16.20;99.90;;;;;;5082770;28;20636;-78
2021/03/28 14:07:27;;;;;;;8.93;1.83;;;16.20;99.90;;;;;;5076641;28;20222;-78
2021/03/28 14:10:07;;;;;;;8.40;1.90;;;16.30;99.90;;;;;;5080207;28;20281;-78
2021/03/28 14:12:38;;;;;;;9.03;2.20;;;16.30;99.90;;;;;;5077650;28;20211;-79
2021/03/28 14:15:23;;;;;;;8.40;2.00;;;16.30;99.90;;;;;;5073121;28;20203;-76
2021/03/28 14:17:57;;;;;;;9.73;2.77;;;16.40;99.90;;;;;;5086767;28;20205;-77
2021/03/28 14:20:28;;;;;;;8.03;2.13;;;16.30;99.90;;;;;;5087836;28;20262;-77
2021/03/28 14:22:59;;;;;;;12.10;2.07;;;16.40;99.90;;;;;;5087878;28;20738;-79
2021/03/28 14:25:34;;;;;;;12.77;2.10;;;16.40;99.90;;;;;;5080506;28;20245;-79
2021/03/28 14:28:36;;;;;;;6.40;1.80;;;16.40;99.90;;;;;;5082760;28;20281;-78